sensor_id;sensor_type;location;lat;lon;timestamp;pressure;altitude;pressure_sealevel;temperature;humidity
23261;BME280;11799;47.740;-3.390;2023-12-28T00:02:02;101359.59;;;11.51;100.00
23261;BME280;11799;47.740;-3.390;2023-12-28T00:04:27;101357.69;;;11.53;100.00
23261;BME280;11799;47.740;-3.390;2023-12-28T00:06:53;101361.16;;;11.53;100.00
23261;BME280;11799;47.740;-3.390;2023-12-28T00:09:19;101365.63;;;11.53;100.00
23261;BME280;11799;47.740;-3.390;2023-12-28T00:11:44;101359.47;;;11.52;100.00
23261;BME280;11799;47.740;-3.390;2023-12-28T00:14:10;101369.09;;;11.53;100.00
23261;BME280;11799;47.740;-3.390;2023-12-28T00:16:35;101359.72;;;11.49;100.00
23261;BME280;11799;47.740;-3.390;2023-12-28T00:19:03;101363.19;;;11.50;100.00
23261;BME280;11799;47.740;-3.390;2023-12-28T00:21:32;101371.97;;;11.50;100.00
23261;BME280;11799;47.740;-3.390;2023-12-28T00:23:58;101375.47;;;11.51;100.00
23261;BME280;11799;47.740;-3.390;2023-12-28T00:26:23;101373.78;;;11.50;100.00
23261;BME280;11799;47.740;-3.390;2023-12-28T00:29:01;101362.25;;;11.51;100.00
23261;BME280;11799;47.740;-3.390;2023-12-28T00:31:26;101356.31;;;11.47;100.00
23261;BME280;11799;47.740;-3.390;2023-12-28T00:33:52;101369.44;;;11.49;100.00
23261;BME280;11799;47.740;-3.390;2023-12-28T00:36:17;101365.84;;;11.50;100.00
23261;BME280;11799;47.740;-3.390;2023-12-28T00:38:43;101360.31;;;11.53;100.00
23261;BME280;11799;47.740;-3.390;2023-12-28T00:41:08;101366.91;;;11.47;100.00
23261;BME280;11799;47.740;-3.390;2023-12-28T00:43:34;101373.16;;;11.46;100.00
23261;BME280;11799;47.740;-3.390;2023-12-28T00:45:59;101368.59;;;11.48;100.00
23261;BME280;11799;47.740;-3.390;2023-12-28T00:48:25;101368.38;;;11.51;100.00
23261;BME280;11799;47.740;-3.390;2023-12-28T00:50:50;101362.00;;;11.54;100.00
23261;BME280;11799;47.740;-3.390;2023-12-28T00:53:16;101364.66;;;11.54;100.00
23261;BME280;11799;47.740;-3.390;2023-12-28T00:55:41;101371.38;;;11.58;100.00
23261;BME280;11799;47.740;-3.390;2023-12-28T00:58:07;101374.13;;;11.56;100.00
23261;BME280;11799;47.740;-3.390;2023-12-28T01:00:32;101367.78;;;11.59;100.00
23261;BME280;11799;47.740;-3.390;2023-12-28T01:02:58;101379.56;;;11.55;100.00
23261;BME280;11799;47.740;-3.390;2023-12-28T01:05:23;101368.16;;;11.54;100.00
23261;BME280;11799;47.740;-3.390;2023-12-28T01:07:51;101367.16;;;11.55;100.00
23261;BME280;11799;47.740;-3.390;2023-12-28T01:10:17;101364.16;;;11.49;100.00
23261;BME280;11799;47.740;-3.390;2023-12-28T01:12:42;101367.16;;;11.55;100.00
23261;BME280;11799;47.740;-3.390;2023-12-28T01:15:09;101372.44;;;11.55;100.00
23261;BME280;11799;47.740;-3.390;2023-12-28T01:17:34;101380.16;;;11.58;100.00
23261;BME280;11799;47.740;-3.390;2023-12-28T01:20:00;101364.66;;;11.54;100.00
23261;BME280;11799;47.740;-3.390;2023-12-28T01:22:25;101369.69;;;11.57;100.00
23261;BME280;11799;47.740;-3.390;2023-12-28T01:24:51;101371.16;;;11.61;100.00
23261;BME280;11799;47.740;-3.390;2023-12-28T01:27:17;101366.94;;;11.58;100.00
23261;BME280;11799;47.740;-3.390;2023-12-28T01:29:43;101356.97;;;11.62;100.00
23261;BME280;11799;47.740;-3.390;2023-12-28T01:32:08;101353.25;;;11.65;100.00
23261;BME280;11799;47.740;-3.390;2023-12-28T01:34:36;101370.09;;;11.64;100.00
23261;BME280;11799;47.740;-3.390;2023-12-28T01:37:02;101370.19;;;11.62;100.00
23261;BME280;11799;47.740;-3.390;2023-12-28T01:39:28;101381.53;;;11.64;100.00
23261;BME280;11799;47.740;-3.390;2023-12-28T01:41:53;101375.50;;;11.62;100.00
23261;BME280;11799;47.740;-3.390;2023-12-28T01:44:19;101367.22;;;11.67;100.00
23261;BME280;11799;47.740;-3.390;2023-12-28T01:46:45;101367.34;;;11.65;100.00
23261;BME280;11799;47.740;-3.390;2023-12-28T01:49:11;101368.06;;;11.67;100.00
23261;BME280;11799;47.740;-3.390;2023-12-28T01:51:37;101372.28;;;11.70;100.00
23261;BME280;11799;47.740;-3.390;2023-12-28T01:54:03;101383.59;;;11.72;100.00
23261;BME280;11799;47.740;-3.390;2023-12-28T01:56:29;101380.00;;;11.73;100.00
23261;BME280;11799;47.740;-3.390;2023-12-28T01:58:55;101381.81;;;11.72;100.00
23261;BME280;11799;47.740;-3.390;2023-12-28T02:01:21;101388.16;;;11.70;100.00
23261;BME280;11799;47.740;-3.390;2023-12-28T02:03:48;101377.59;;;11.70;100.00
23261;BME280;11799;47.740;-3.390;2023-12-28T02:06:14;101382.47;;;11.63;100.00
23261;BME280;11799;47.740;-3.390;2023-12-28T02:08:44;101376.13;;;11.66;100.00
23261;BME280;11799;47.740;-3.390;2023-12-28T02:11:10;101379.59;;;11.66;100.00
23261;BME280;11799;47.740;-3.390;2023-12-28T02:13:36;101378.88;;;11.64;100.00
23261;BME280;11799;47.740;-3.390;2023-12-28T02:16:22;101374.88;;;11.58;100.00
23261;BME280;11799;47.740;-3.390;2023-12-28T02:18:51;101375.50;;;11.62;100.00
23261;BME280;11799;47.740;-3.390;2023-12-28T02:21:20;101372.13;;;11.60;100.00
23261;BME280;11799;47.740;-3.390;2023-12-28T02:23:49;101376.78;;;11.56;100.00
23261;BME280;11799;47.740;-3.390;2023-12-28T02:26:16;101374.03;;;11.58;100.00
23261;BME280;11799;47.740;-3.390;2023-12-28T02:28:42;101375.50;;;11.62;100.00
23261;BME280;11799;47.740;-3.390;2023-12-28T02:31:14;101378.03;;;11.64;100.00
23261;BME280;11799;47.740;-3.390;2023-12-28T02:33:59;101382.91;;;11.57;100.00
23261;BME280;11799;47.740;-3.390;2023-12-28T02:36:30;101389.31;;;11.54;100.00
23261;BME280;11799;47.740;-3.390;2023-12-28T02:38:56;101381.50;;;11.53;100.00
23261;BME280;11799;47.740;-3.390;2023-12-28T02:41:24;101390.97;;;11.55;100.00
23261;BME280;11799;47.740;-3.390;2023-12-28T02:43:50;101390.00;;;11.56;100.00
23261;BME280;11799;47.740;-3.390;2023-12-28T02:46:17;101389.06;;;11.57;100.00
23261;BME280;11799;47.740;-3.390;2023-12-28T02:48:44;101368.81;;;11.45;100.00
23261;BME280;11799;47.740;-3.390;2023-12-28T02:51:09;101377.03;;;11.53;100.00
23261;BME280;11799;47.740;-3.390;2023-12-28T02:53:35;101385.69;;;11.55;100.00
23261;BME280;11799;47.740;-3.390;2023-12-28T02:56:00;101390.97;;;11.55;100.00
23261;BME280;11799;47.740;-3.390;2023-12-28T02:58:26;101386.88;;;11.51;100.00
23261;BME280;11799;47.740;-3.390;2023-12-28T03:00:51;101388.56;;;11.52;100.00
23261;BME280;11799;47.740;-3.390;2023-12-28T03:03:17;101380.38;;;11.55;100.00
23261;BME280;11799;47.740;-3.390;2023-12-28T03:05:42;101383.88;;;11.56;100.00
23261;BME280;11799;47.740;-3.390;2023-12-28T03:08:08;101380.38;;;11.55;100.00
23261;BME280;11799;47.740;-3.390;2023-12-28T03:10:34;101378.47;;;11.57;100.00
23261;BME280;11799;47.740;-3.390;2023-12-28T03:12:59;101393.38;;;11.58;100.00
23261;BME280;11799;47.740;-3.390;2023-12-28T03:15:26;101383.88;;;11.56;100.00
23261;BME280;11799;47.740;-3.390;2023-12-28T03:17:51;101388.31;;;11.55;100.00
23261;BME280;11799;47.740;-3.390;2023-12-28T03:20:17;101371.50;;;11.56;100.00
23261;BME280;11799;47.740;-3.390;2023-12-28T03:22:42;101378.38;;;11.59;100.00
23261;BME280;11799;47.740;-3.390;2023-12-28T03:25:08;101379.44;;;11.56;100.00
23261;BME280;11799;47.740;-3.390;2023-12-28T03:27:34;101376.44;;;11.61;100.00
23261;BME280;11799;47.740;-3.390;2023-12-28T03:29:59;101373.59;;;11.64;100.00
23261;BME280;11799;47.740;-3.390;2023-12-28T03:32:25;101378.03;;;11.64;100.00
23261;BME280;11799;47.740;-3.390;2023-12-28T03:34:50;101374.44;;;11.65;100.00
23261;BME280;11799;47.740;-3.390;2023-12-28T03:37:16;101375.38;;;11.64;100.00
23261;BME280;11799;47.740;-3.390;2023-12-28T03:39:41;101370.09;;;11.64;100.00
23261;BME280;11799;47.740;-3.390;2023-12-28T03:42:07;101375.38;;;11.64;100.00
23261;BME280;11799;47.740;-3.390;2023-12-28T03:44:32;101368.75;;;11.58;100.00
23261;BME280;11799;47.740;-3.390;2023-12-28T03:46:58;101370.91;;;11.53;100.00
23261;BME280;11799;47.740;-3.390;2023-12-28T03:49:23;101363.31;;;11.48;100.00
23261;BME280;11799;47.740;-3.390;2023-12-28T03:51:50;101372.19;;;11.47;100.00
23261;BME280;11799;47.740;-3.390;2023-12-28T03:54:16;101375.69;;;11.48;100.00
23261;BME280;11799;47.740;-3.390;2023-12-28T03:56:42;101361.63;;;11.47;100.00
23261;BME280;11799;47.740;-3.390;2023-12-28T03:59:11;101362.69;;;11.45;100.00
23261;BME280;11799;47.740;-3.390;2023-12-28T04:01:36;101351.03;;;11.47;100.00
23261;BME280;11799;47.740;-3.390;2023-12-28T04:04:02;101360.16;;;11.43;100.00
23261;BME280;11799;47.740;-3.390;2023-12-28T04:06:28;101342.19;;;11.36;100.00
23261;BME280;11799;47.740;-3.390;2023-12-28T04:08:54;101354.00;;;11.43;100.00
23261;BME280;11799;47.740;-3.390;2023-12-28T04:11:20;101351.47;;;11.41;100.00
23261;BME280;11799;47.740;-3.390;2023-12-28T04:13:46;101334.59;;;11.31;100.00
23261;BME280;11799;47.740;-3.390;2023-12-28T04:16:12;101363.84;;;11.41;100.00
23261;BME280;11799;47.740;-3.390;2023-12-28T04:18:38;101360.59;;;11.37;100.00
23261;BME280;11799;47.740;-3.390;2023-12-28T04:21:04;101357.22;;;11.35;100.00
23261;BME280;11799;47.740;-3.390;2023-12-28T04:23:33;101358.16;;;11.34;100.00
23261;BME280;11799;47.740;-3.390;2023-12-28T04:25:59;101349.63;;;11.31;100.00
23261;BME280;11799;47.740;-3.390;2023-12-28T04:28:24;101358.59;;;11.28;100.00
23261;BME280;11799;47.740;-3.390;2023-12-28T04:30:50;101354.91;;;11.31;100.00
23261;BME280;11799;47.740;-3.390;2023-12-28T04:33:17;101356.28;;;11.23;100.00
23261;BME280;11799;47.740;-3.390;2023-12-28T04:35:43;101350.91;;;11.25;100.00
23261;BME280;11799;47.740;-3.390;2023-12-28T04:38:08;101355.66;;;11.20;100.00
23261;BME280;11799;47.740;-3.390;2023-12-28T04:40:37;101355.25;;;11.13;100.00
23261;BME280;11799;47.740;-3.390;2023-12-28T04:43:02;101348.59;;;11.20;100.00
23261;BME280;11799;47.740;-3.390;2023-12-28T04:45:28;101352.41;;;11.16;100.00
23261;BME280;11799;47.740;-3.390;2023-12-28T04:47:54;101351.78;;;11.13;100.00
23261;BME280;11799;47.740;-3.390;2023-12-28T04:50:19;101346.59;;;11.11;100.00
23261;BME280;11799;47.740;-3.390;2023-12-28T04:52:45;101359.50;;;11.16;100.00
23261;BME280;11799;47.740;-3.390;2023-12-28T04:55:11;101361.28;;;11.15;100.00
23261;BME280;11799;47.740;-3.390;2023-12-28T04:57:36;101350.19;;;11.10;100.00
23261;BME280;11799;47.740;-3.390;2023-12-28T05:00:02;101356.00;;;11.15;100.00
23261;BME280;11799;47.740;-3.390;2023-12-28T05:02:28;101362.88;;;11.18;100.00
23261;BME280;11799;47.740;-3.390;2023-12-28T05:04:54;101363.72;;;11.18;100.00
23261;BME280;11799;47.740;-3.390;2023-12-28T05:07:19;101360.75;;;11.23;100.00
23261;BME280;11799;47.740;-3.390;2023-12-28T05:09:45;101363.16;;;11.26;100.00
23261;BME280;11799;47.740;-3.390;2023-12-28T05:12:11;101366.31;;;11.31;100.00
23261;BME280;11799;47.740;-3.390;2023-12-28T05:14:36;101365.38;;;11.32;100.00
23261;BME280;11799;47.740;-3.390;2023-12-28T05:17:02;101359.13;;;11.33;100.00
23261;BME280;11799;47.740;-3.390;2023-12-28T05:19:27;101367.06;;;11.33;100.00
23261;BME280;11799;47.740;-3.390;2023-12-28T05:21:53;101365.38;;;11.32;100.00
23261;BME280;11799;47.740;-3.390;2023-12-28T05:24:18;101362.63;;;11.34;100.00
23261;BME280;11799;47.740;-3.390;2023-12-28T05:26:44;101366.84;;;11.36;100.00
23261;BME280;11799;47.740;-3.390;2023-12-28T05:29:09;101379.94;;;11.38;100.00
23261;BME280;11799;47.740;-3.390;2023-12-28T05:31:35;101381.22;;;11.32;100.00
23261;BME280;11799;47.740;-3.390;2023-12-28T05:34:01;101372.75;;;11.40;100.00
23261;BME280;11799;47.740;-3.390;2023-12-28T05:36:27;101378.03;;;11.40;100.00
23261;BME280;11799;47.740;-3.390;2023-12-28T05:38:52;101380.56;;;11.41;100.00
23261;BME280;11799;47.740;-3.390;2023-12-28T05:41:18;101385.97;;;11.40;100.00
23261;BME280;11799;47.740;-3.390;2023-12-28T05:43:43;101385.25;;;11.38;100.00
23261;BME280;11799;47.740;-3.390;2023-12-28T05:46:09;101381.75;;;11.37;100.00
23261;BME280;11799;47.740;-3.390;2023-12-28T05:48:35;101383.75;;;11.34;100.00
23261;BME280;11799;47.740;-3.390;2023-12-28T05:51:00;101382.19;;;11.31;100.00
23261;BME280;11799;47.740;-3.390;2023-12-28T05:53:26;101388.13;;;11.22;100.00
23261;BME280;11799;47.740;-3.390;2023-12-28T05:55:53;101394.03;;;11.25;100.00
23261;BME280;11799;47.740;-3.390;2023-12-28T05:58:18;101395.41;;;11.31;100.00
23261;BME280;11799;47.740;-3.390;2023-12-28T06:00:44;101392.53;;;11.34;100.00
23261;BME280;11799;47.740;-3.390;2023-12-28T06:03:11;101382.41;;;11.28;100.00
23261;BME280;11799;47.740;-3.390;2023-12-28T06:05:37;101401.44;;;11.33;100.00
23261;BME280;11799;47.740;-3.390;2023-12-28T06:08:03;101393.81;;;11.29;100.00
23261;BME280;11799;47.740;-3.390;2023-12-28T06:10:28;101387.81;;;11.27;100.00
23261;BME280;11799;47.740;-3.390;2023-12-28T06:12:54;101387.06;;;11.24;100.00
23261;BME280;11799;47.740;-3.390;2023-12-28T06:15:20;101388.53;;;11.29;100.00
23261;BME280;11799;47.740;-3.390;2023-12-28T06:17:45;101386.22;;;11.24;100.00
23261;BME280;11799;47.740;-3.390;2023-12-28T06:20:11;101390.56;;;11.25;100.00
23261;BME280;11799;47.740;-3.390;2023-12-28T06:22:37;101388.25;;;11.20;100.00
23261;BME280;11799;47.740;-3.390;2023-12-28T06:25:03;101390.25;;;11.17;100.00
23261;BME280;11799;47.740;-3.390;2023-12-28T06:27:29;101386.75;;;11.16;100.00
23261;BME280;11799;47.740;-3.390;2023-12-28T06:29:54;101388.78;;;11.13;100.00
23261;BME280;11799;47.740;-3.390;2023-12-28T06:32:20;101388.88;;;11.11;100.00
23261;BME280;11799;47.740;-3.390;2023-12-28T06:34:46;101386.13;;;11.13;100.00
23261;BME280;11799;47.740;-3.390;2023-12-28T06:37:12;101391.53;;;11.11;100.00
23261;BME280;11799;47.740;-3.390;2023-12-28T06:39:38;101387.31;;;11.09;100.00
23261;BME280;11799;47.740;-3.390;2023-12-28T06:42:04;101394.28;;;11.10;100.00
23261;BME280;11799;47.740;-3.390;2023-12-28T06:44:30;101401.16;;;11.12;100.00
23261;BME280;11799;47.740;-3.390;2023-12-28T06:46:55;101403.91;;;11.11;100.00
23261;BME280;11799;47.740;-3.390;2023-12-28T06:49:21;101399.34;;;11.13;100.00
23261;BME280;11799;47.740;-3.390;2023-12-28T06:51:46;101405.59;;;11.12;100.00
23261;BME280;11799;47.740;-3.390;2023-12-28T06:54:13;101411.72;;;11.12;100.00
23261;BME280;11799;47.740;-3.390;2023-12-28T06:56:39;101411.84;;;11.11;100.00
23261;BME280;11799;47.740;-3.390;2023-12-28T06:59:04;101411.72;;;11.12;100.00
23261;BME280;11799;47.740;-3.390;2023-12-28T07:01:30;101410.03;;;11.11;100.00
23261;BME280;11799;47.740;-3.390;2023-12-28T07:03:55;101418.81;;;11.12;100.00
23261;BME280;11799;47.740;-3.390;2023-12-28T07:06:21;101425.78;;;11.13;100.00
23261;BME280;11799;47.740;-3.390;2023-12-28T07:08:46;101426.53;;;11.15;100.00
23261;BME280;11799;47.740;-3.390;2023-12-28T07:11:12;101421.53;;;11.23;100.00
23261;BME280;11799;47.740;-3.390;2023-12-28T07:13:38;101419.97;;;11.20;100.00
23261;BME280;11799;47.740;-3.390;2023-12-28T07:16:03;101422.81;;;11.17;100.00
23261;BME280;11799;47.740;-3.390;2023-12-28T07:18:29;101426.09;;;11.21;100.00
23261;BME280;11799;47.740;-3.390;2023-12-28T07:20:55;101428.00;;;11.19;100.00
23261;BME280;11799;47.740;-3.390;2023-12-28T07:23:20;101421.53;;;11.23;100.00
23261;BME280;11799;47.740;-3.390;2023-12-28T07:25:46;101425.25;;;11.20;100.00
23261;BME280;11799;47.740;-3.390;2023-12-28T07:28:12;101422.50;;;11.22;100.00
23261;BME280;11799;47.740;-3.390;2023-12-28T07:30:37;101420.69;;;11.22;100.00
23261;BME280;11799;47.740;-3.390;2023-12-28T07:33:04;101423.34;;;11.22;100.00
23261;BME280;11799;47.740;-3.390;2023-12-28T07:35:29;101426.94;;;11.21;100.00
23261;BME280;11799;47.740;-3.390;2023-12-28T07:37:55;101424.50;;;11.18;100.00
23261;BME280;11799;47.740;-3.390;2023-12-28T07:40:20;101435.09;;;11.18;100.00
23261;BME280;11799;47.740;-3.390;2023-12-28T07:42:46;101431.72;;;11.16;100.00
23261;BME280;11799;47.740;-3.390;2023-12-28T07:45:11;101426.31;;;11.18;100.00
23261;BME280;11799;47.740;-3.390;2023-12-28T07:47:37;101431.81;;;11.15;100.00
23261;BME280;11799;47.740;-3.390;2023-12-28T07:50:03;101426.75;;;11.12;100.00
23261;BME280;11799;47.740;-3.390;2023-12-28T07:52:29;101430.44;;;11.09;100.00
23261;BME280;11799;47.740;-3.390;2023-12-28T07:54:54;101431.19;;;11.11;100.00
23261;BME280;11799;47.740;-3.390;2023-12-28T07:57:20;101431.28;;;11.10;100.00
23261;BME280;11799;47.740;-3.390;2023-12-28T07:59:46;101420.72;;;11.10;100.00
23261;BME280;11799;47.740;-3.390;2023-12-28T08:02:12;101427.81;;;11.09;100.00
23261;BME280;11799;47.740;-3.390;2023-12-28T08:04:37;101421.88;;;11.06;100.00
23261;BME280;11799;47.740;-3.390;2023-12-28T08:07:03;101418.59;;;11.02;100.00
23261;BME280;11799;47.740;-3.390;2023-12-28T08:09:29;101431.50;;;11.07;100.00
23261;BME280;11799;47.740;-3.390;2023-12-28T08:11:55;101427.16;;;11.06;100.00
23261;BME280;11799;47.740;-3.390;2023-12-28T08:14:21;101429.06;;;11.04;100.00
23261;BME280;11799;47.740;-3.390;2023-12-28T08:16:46;101431.63;;;11.05;100.00
23261;BME280;11799;47.740;-3.390;2023-12-28T08:19:12;101432.56;;;11.04;100.00
23261;BME280;11799;47.740;-3.390;2023-12-28T08:21:38;101439.31;;;11.08;100.00
23261;BME280;11799;47.740;-3.390;2023-12-28T08:24:04;101430.44;;;11.09;100.00
23261;BME280;11799;47.740;-3.390;2023-12-28T08:26:30;101442.59;;;11.12;100.00
23261;BME280;11799;47.740;-3.390;2023-12-28T08:28:55;101438.69;;;11.17;100.00
23261;BME280;11799;47.740;-3.390;2023-12-28T08:31:21;101443.88;;;11.19;100.00
23261;BME280;11799;47.740;-3.390;2023-12-28T08:33:46;101432.97;;;11.23;100.00
23261;BME280;11799;47.740;-3.390;2023-12-28T08:36:12;101433.06;;;11.35;100.00
23261;BME280;11799;47.740;-3.390;2023-12-28T08:38:38;101437.06;;;11.40;100.00
23261;BME280;11799;47.740;-3.390;2023-12-28T08:41:04;101435.78;;;11.46;100.00
23261;BME280;11799;47.740;-3.390;2023-12-28T08:43:34;101442.66;;;11.48;100.00
23261;BME280;11799;47.740;-3.390;2023-12-28T08:46:00;101439.78;;;11.51;100.00
23261;BME280;11799;47.740;-3.390;2023-12-28T08:48:26;101448.22;;;11.56;100.00
23261;BME280;11799;47.740;-3.390;2023-12-28T08:50:51;101441.13;;;11.57;100.00
23261;BME280;11799;47.740;-3.390;2023-12-28T08:53:17;101439.84;;;11.63;100.00
23261;BME280;11799;47.740;-3.390;2023-12-28T08:55:42;101439.16;;;11.72;100.00
23261;BME280;11799;47.740;-3.390;2023-12-28T08:58:08;101442.25;;;11.78;100.00
23261;BME280;11799;47.740;-3.390;2023-12-28T09:00:33;101433.00;;;11.84;100.00
23261;BME280;11799;47.740;-3.390;2023-12-28T09:02:59;101435.31;;;11.88;100.00
23261;BME280;11799;47.740;-3.390;2023-12-28T09:05:24;101443.88;;;11.92;100.00
23261;BME280;11799;47.740;-3.390;2023-12-28T09:07:50;101440.16;;;11.95;100.00
23261;BME280;11799;47.740;-3.390;2023-12-28T09:10:17;101448.97;;;11.95;100.00
23261;BME280;11799;47.740;-3.390;2023-12-28T09:12:42;101454.13;;;11.97;100.00
23261;BME280;11799;47.740;-3.390;2023-12-28T09:15:08;101438.25;;;11.97;100.00
23261;BME280;11799;47.740;-3.390;2023-12-28T09:17:35;101441.53;;;12.00;100.00
23261;BME280;11799;47.740;-3.390;2023-12-28T09:20:00;101466.19;;;12.01;100.00
23261;BME280;11799;47.740;-3.390;2023-12-28T09:22:29;101448.16;;;12.06;100.00
23261;BME280;11799;47.740;-3.390;2023-12-28T09:24:55;101456.00;;;12.07;100.00
23261;BME280;11799;47.740;-3.390;2023-12-28T09:27:20;101461.53;;;12.15;100.00
23261;BME280;11799;47.740;-3.390;2023-12-28T09:29:46;101455.06;;;12.19;100.00
23261;BME280;11799;47.740;-3.390;2023-12-28T09:32:12;101462.03;;;12.20;100.00
23261;BME280;11799;47.740;-3.390;2023-12-28T09:34:37;101455.78;;;12.21;100.00
23261;BME280;11799;47.740;-3.390;2023-12-28T09:37:03;101477.72;;;12.23;100.00
23261;BME280;11799;47.740;-3.390;2023-12-28T09:39:28;101463.41;;;12.26;100.00
23261;BME280;11799;47.740;-3.390;2023-12-28T09:42:04;101464.97;;;12.29;100.00
23261;BME280;11799;47.740;-3.390;2023-12-28T09:44:32;101471.72;;;12.33;100.00
23261;BME280;11799;47.740;-3.390;2023-12-28T09:47:02;101471.84;;;12.31;100.00
23261;BME280;11799;47.740;-3.390;2023-12-28T09:49:28;101478.59;;;12.35;100.00
23261;BME280;11799;47.740;-3.390;2023-12-28T09:51:55;101474.66;;;12.41;100.00
23261;BME280;11799;47.740;-3.390;2023-12-28T09:54:20;101485.13;;;12.42;100.00
23261;BME280;11799;47.740;-3.390;2023-12-28T09:56:46;101486.94;;;12.42;100.00
23261;BME280;11799;47.740;-3.390;2023-12-28T09:59:13;101488.63;;;12.43;100.00
23261;BME280;11799;47.740;-3.390;2023-12-28T10:01:41;101484.41;;;12.40;100.00
23261;BME280;11799;47.740;-3.390;2023-12-28T10:04:08;101493.81;;;12.44;100.00
23261;BME280;11799;47.740;-3.390;2023-12-28T10:06:34;101505.59;;;12.40;100.00
23261;BME280;11799;47.740;-3.390;2023-12-28T10:09:00;101511.00;;;12.39;100.00
23261;BME280;11799;47.740;-3.390;2023-12-28T10:11:25;101502.31;;;12.37;100.00
23261;BME280;11799;47.740;-3.390;2023-12-28T10:13:53;101513.88;;;12.36;100.00
23261;BME280;11799;47.740;-3.390;2023-12-28T10:16:19;101512.19;;;12.35;100.00
23261;BME280;11799;47.740;-3.390;2023-12-28T10:18:44;101506.56;;;12.39;100.00
23261;BME280;11799;47.740;-3.390;2023-12-28T10:21:13;101509.94;;;12.41;100.00
23261;BME280;11799;47.740;-3.390;2023-12-28T10:23:39;101518.09;;;12.38;100.00
23261;BME280;11799;47.740;-3.390;2023-12-28T10:26:05;101518.44;;;12.34;100.00
23261;BME280;11799;47.740;-3.390;2023-12-28T10:28:32;101519.63;;;12.30;100.00
23261;BME280;11799;47.740;-3.390;2023-12-28T10:31:02;101517.81;;;12.30;100.00
23261;BME280;11799;47.740;-3.390;2023-12-28T10:33:34;101516.13;;;12.29;100.00
23261;BME280;11799;47.740;-3.390;2023-12-28T10:36:05;101519.28;;;12.34;100.00
23261;BME280;11799;47.740;-3.390;2023-12-28T10:38:34;101527.22;;;12.34;100.00
23261;BME280;11799;47.740;-3.390;2023-12-28T10:41:01;101513.59;;;12.28;100.00
23261;BME280;11799;47.740;-3.390;2023-12-28T10:43:28;101518.78;;;12.29;100.00
23261;BME280;11799;47.740;-3.390;2023-12-28T10:45:55;101513.38;;;12.31;100.00
23261;BME280;11799;47.740;-3.390;2023-12-28T10:48:29;101506.72;;;12.25;100.00
23261;BME280;11799;47.740;-3.390;2023-12-28T10:51:00;101504.59;;;12.30;100.00
23261;BME280;11799;47.740;-3.390;2023-12-28T10:53:34;101499.28;;;12.30;100.00
23261;BME280;11799;47.740;-3.390;2023-12-28T11:01:32;101504.19;;;12.23;100.00
23261;BME280;11799;47.740;-3.390;2023-12-28T11:04:03;101493.38;;;12.27;100.00
23261;BME280;11799;47.740;-3.390;2023-12-28T11:06:35;101487.72;;;12.31;100.00
23261;BME280;11799;47.740;-3.390;2023-12-28T11:09:00;101486.94;;;12.42;100.00
23261;BME280;11799;47.740;-3.390;2023-12-28T11:11:27;101479.84;;;12.42;100.00
23261;BME280;11799;47.740;-3.390;2023-12-28T11:13:55;101487.56;;;12.45;100.00
23261;BME280;11799;47.740;-3.390;2023-12-28T11:16:22;101479.38;;;12.48;100.00
23261;BME280;11799;47.740;-3.390;2023-12-28T11:18:48;101477.34;;;12.52;100.00
23261;BME280;11799;47.740;-3.390;2023-12-28T11:21:15;101477.72;;;12.59;100.00
23261;BME280;11799;47.740;-3.390;2023-12-28T11:23:42;101470.00;;;12.55;100.00
23261;BME280;11799;47.740;-3.390;2023-12-28T11:26:18;101467.72;;;12.51;100.00
23261;BME280;11799;47.740;-3.390;2023-12-28T11:28:44;101469.50;;;12.50;100.00
23261;BME280;11799;47.740;-3.390;2023-12-28T11:31:10;101470.69;;;12.46;100.00
23261;BME280;11799;47.740;-3.390;2023-12-28T11:36:17;101458.91;;;12.50;100.00
23261;BME280;11799;47.740;-3.390;2023-12-28T11:38:44;101459.53;;;12.54;100.00
23261;BME280;11799;47.740;-3.390;2023-12-28T11:41:10;101466.50;;;12.55;100.00
23261;BME280;11799;47.740;-3.390;2023-12-28T11:43:41;101458.34;;;12.58;100.00
23261;BME280;11799;47.740;-3.390;2023-12-28T11:46:07;101450.28;;;12.60;100.00
23261;BME280;11799;47.740;-3.390;2023-12-28T11:48:33;101453.16;;;12.56;100.00
23261;BME280;11799;47.740;-3.390;2023-12-28T11:51:00;101450.72;;;12.53;100.00
23261;BME280;11799;47.740;-3.390;2023-12-28T11:53:26;101433.88;;;12.54;100.00
23261;BME280;11799;47.740;-3.390;2023-12-28T11:55:52;101440.75;;;12.57;100.00
23261;BME280;11799;47.740;-3.390;2023-12-28T11:58:24;101438.47;;;12.64;100.00
23261;BME280;11799;47.740;-3.390;2023-12-28T12:00:49;101436.56;;;12.66;100.00
23261;BME280;11799;47.740;-3.390;2023-12-28T12:03:15;101438.25;;;12.67;100.00
23261;BME280;11799;47.740;-3.390;2023-12-28T12:05:40;101438.25;;;12.67;100.00
23261;BME280;11799;47.740;-3.390;2023-12-28T12:08:06;101439.31;;;12.64;100.00
23261;BME280;11799;47.740;-3.390;2023-12-28T12:10:34;101425.97;;;12.66;100.00
23261;BME280;11799;47.740;-3.390;2023-12-28T12:13:00;101426.66;;;12.56;100.00
23261;BME280;11799;47.740;-3.390;2023-12-28T12:15:29;101434.38;;;12.60;100.00
23261;BME280;11799;47.740;-3.390;2023-12-28T12:17:54;101422.31;;;12.55;100.00
23261;BME280;11799;47.740;-3.390;2023-12-28T12:20:20;101433.66;;;12.57;100.00
23261;BME280;11799;47.740;-3.390;2023-12-28T12:22:46;101431.72;;;12.60;100.00
23261;BME280;11799;47.740;-3.390;2023-12-28T12:25:12;101424.84;;;12.57;100.00
23261;BME280;11799;47.740;-3.390;2023-12-28T12:27:37;101438.81;;;12.59;100.00
23261;BME280;11799;47.740;-3.390;2023-12-28T12:30:06;101424.00;;;12.56;100.00
23261;BME280;11799;47.740;-3.390;2023-12-28T12:32:32;101433.03;;;12.54;100.00
23261;BME280;11799;47.740;-3.390;2023-12-28T12:34:59;101429.53;;;12.53;100.00